Time;durP1;ratioP1;P1;durP2;ratioP2;P2;SDS_P1;SDS_P2;PMS_P1;PMS_P2;Temp;Humidity;BMP_temperature;BMP_pressure;BME280_temperature;BME280_humidity;BME280_pressure;Samples;Min_cycle;Max_cycle;Signal;HPM_P1;HPM_P2
2022/08/17 00:01:16;;;;;;;;;;;;;;;;;;6181174;23;19909;-67
2022/08/17 00:03:42;;;;;;;;;;;;;;;;;;6181535;23;19912;-66
2022/08/17 00:06:10;;;;;;;;;;;;;;;;;;6181426;23;20253;-66
2022/08/17 00:08:36;;;;;;;;;;;;;;;;;;6180883;23;19954;-66
2022/08/17 00:11:02;;;;;;;;;;;;;;;;;;6154771;23;19908;-65
2022/08/17 00:13:28;;;;;;;;;;;;;;;;;;6181564;23;19908;-64
2022/08/17 00:15:54;;;;;;;;;;;;;;;;;;6180988;23;20024;-65
2022/08/17 00:18:20;;;;;;;;;;;;;;;;;;6181355;23;19970;-65
2022/08/17 00:20:45;;;;;;;;;;;;;;;;;;6180934;23;19908;-65
2022/08/17 00:23:11;;;;;;;;;;;;;;;;;;6181523;23;19935;-65
2022/08/17 00:25:36;;;;;;;;;;;;;;;;;;6180753;23;19908;-66
2022/08/17 00:28:02;;;;;;;;;;;;;;;;;;6182538;23;20296;-65
2022/08/17 00:30:28;;;;;;;;;;;;;;;;;;6180853;23;19908;-66
2022/08/17 00:32:53;;;;;;;;;;;;;;;;;;6182196;23;19908;-66
2022/08/17 00:35:22;;;;;;;;;;;;;;;;;;6182236;23;19912;-66
2022/08/17 00:37:47;;;;;;;;;;;;;;;;;;6182020;23;20122;-65
2022/08/17 00:40:13;;;;;;;;;;;;;;;;;;6182388;23;20431;-66
2022/08/17 00:42:38;;;;;;;;;;;;;;;;;;6182266;23;19930;-65
2022/08/17 00:45:04;;;;;;;;;;;;;;;;;;6182406;23;19931;-65
2022/08/17 00:47:30;;;;;;;;;;;;;;;;;;6182342;23;20012;-66
2022/08/17 00:49:55;;;;;;;;;;;;;;;;;;6182004;23;19915;-66
2022/08/17 00:52:21;;;;;;;;;;;;;;;;;;6182132;23;19927;-65
2022/08/17 00:54:47;;;;;;;;;;;;;;;;;;6181145;23;19908;-67
2022/08/17 00:57:13;;;;;;;;;;;;;;;;;;6182067;23;19955;-65
2022/08/17 00:59:39;;;;;;;;;;;;;;;;;;6181867;23;19916;-65
2022/08/17 01:02:05;;;;;;;;;;;;;;;;;;6182336;23;19987;-64
2022/08/17 01:04:30;;;;;;;;;;;;;;;;;;6182657;23;20083;-66
2022/08/17 01:06:56;;;;;;;;;;;;;;;;;;6181472;23;19939;-65
2022/08/17 01:09:22;;;;;;;;;;;;;;;;;;6182996;23;19908;-65
2022/08/17 01:11:51;;;;;;;;;;;;;;;;;;6182019;23;19915;-66
2022/08/17 01:14:18;;;;;;;;;;;;;;;;;;6182494;23;19915;-66
2022/08/17 01:16:44;;;;;;;;;;;;;;;;;;6181713;23;19919;-65
2022/08/17 01:19:09;;;;;;;;;;;;;;;;;;6182114;23;19955;-64
2022/08/17 01:21:35;;;;;;;;;;;;;;;;;;6181577;23;20296;-67
2022/08/17 01:24:01;;;;;;;;;;;;;;;;;;6182178;23;19912;-65
2022/08/17 01:26:26;;;;;;;;;;;;;;;;;;6181827;23;19915;-65
2022/08/17 01:28:52;;;;;;;;;;;;;;;;;;6181656;23;19908;-66
2022/08/17 01:31:17;;;;;;;;;;;;;;;;;;6181928;23;19912;-66
2022/08/17 01:33:43;;;;;;;;;;;;;;;;;;6181666;23;20308;-66
2022/08/17 01:36:08;;;;;;;;;;;;;;;;;;6182304;23;19990;-66
2022/08/17 01:38:34;;;;;;;;;;;;;;;;;;6181560;23;19920;-66
2022/08/17 01:41:00;;;;;;;;;;;;;;;;;;6181932;23;19908;-66
2022/08/17 01:43:26;;;;;;;;;;;;;;;;;;6182040;23;19908;-66
2022/08/17 01:45:51;;;;;;;;;;;;;;;;;;6181629;23;19908;-66
2022/08/17 01:48:18;;;;;;;;;;;;;;;;;;6182068;23;19904;-65
2022/08/17 01:50:44;;;;;;;;;;;;;;;;;;6181695;23;19912;-65
2022/08/17 01:53:09;;;;;;;;;;;;;;;;;;6182311;23;20337;-65
2022/08/17 01:55:35;;;;;;;;;;;;;;;;;;6181205;23;19916;-67
2022/08/17 01:58:01;;;;;;;;;;;;;;;;;;6181756;23;19920;-66
2022/08/17 02:00:26;;;;;;;;;;;;;;;;;;6181908;23;20253;-68
2022/08/17 02:02:52;;;;;;;;;;;;;;;;;;6181899;23;19907;-66
2022/08/17 02:05:18;;;;;;;;;;;;;;;;;;6181889;23;19911;-65
2022/08/17 02:07:44;;;;;;;;;;;;;;;;;;6181654;23;20303;-66
2022/08/17 02:10:09;;;;;;;;;;;;;;;;;;6182101;23;20337;-67
2022/08/17 02:12:36;;;;;;;;;;;;;;;;;;6181502;23;20252;-66
2022/08/17 02:15:02;;;;;;;;;;;;;;;;;;6181931;23;20031;-66
2022/08/17 02:17:28;;;;;;;;;;;;;;;;;;6181677;23;19908;-67
2022/08/17 02:19:53;;;;;;;;;;;;;;;;;;6181626;23;20237;-66
2022/08/17 02:22:19;;;;;;;;;;;;;;;;;;6198346;23;19927;-74
2022/08/17 02:24:45;;;;;;;;;;;;;;;;;;6236530;23;19915;-75
2022/08/17 02:27:11;;;;;;;;;;;;;;;;;;6265720;22;20375;-76
2022/08/17 02:29:36;;;;;;;;;;;;;;;;;;6240642;23;19907;-74
2022/08/17 02:32:02;;;;;;;;;;;;;;;;;;6241875;23;19945;-74
2022/08/17 02:34:27;;;;;;;;;;;;;;;;;;6242468;23;19973;-75
2022/08/17 02:36:53;;;;;;;;;;;;;;;;;;6255481;22;20006;-74
2022/08/17 02:39:19;;;;;;;;;;;;;;;;;;6274315;22;19969;-75
2022/08/17 02:41:44;;;;;;;;;;;;;;;;;;6274741;22;19923;-74
2022/08/17 02:44:10;;;;;;;;;;;;;;;;;;6247181;22;20337;-75
2022/08/17 02:46:36;;;;;;;;;;;;;;;;;;6247628;22;19930;-75
2022/08/17 02:49:02;;;;;;;;;;;;;;;;;;6247481;22;19977;-74
2022/08/17 02:51:27;;;;;;;;;;;;;;;;;;6274710;22;19914;-75
2022/08/17 02:53:53;;;;;;;;;;;;;;;;;;6274458;22;19986;-73
2022/08/17 02:56:19;;;;;;;;;;;;;;;;;;6274244;22;20270;-72
2022/08/17 02:58:45;;;;;;;;;;;;;;;;;;6274510;22;19969;-74
2022/08/17 03:01:11;;;;;;;;;;;;;;;;;;6274312;22;20311;-74
2022/08/17 03:03:37;;;;;;;;;;;;;;;;;;6274265;22;19961;-74
2022/08/17 03:06:02;;;;;;;;;;;;;;;;;;6274197;22;20001;-76
2022/08/17 03:08:28;;;;;;;;;;;;;;;;;;6274275;22;19918;-74
2022/08/17 03:10:54;;;;;;;;;;;;;;;;;;6274250;22;19914;-73
2022/08/17 03:13:19;;;;;;;;;;;;;;;;;;6273975;22;19907;-74
2022/08/17 03:15:45;;;;;;;;;;;;;;;;;;6274278;22;19907;-74
2022/08/17 03:18:11;;;;;;;;;;;;;;;;;;6273852;22;19915;-74
2022/08/17 03:20:37;;;;;;;;;;;;;;;;;;6274337;22;20267;-74
2022/08/17 03:23:02;;;;;;;;;;;;;;;;;;6251880;22;19920;-76
2022/08/17 03:25:28;;;;;;;;;;;;;;;;;;6241956;23;19914;-75
2022/08/17 03:27:53;;;;;;;;;;;;;;;;;;6243538;23;19966;-73
2022/08/17 03:30:21;;;;;;;;;;;;;;;;;;6241835;23;20344;-75
2022/08/17 03:32:46;;;;;;;;;;;;;;;;;;6243007;23;19933;-75
2022/08/17 03:35:12;;;;;;;;;;;;;;;;;;6243521;23;19911;-72
2022/08/17 03:37:37;;;;;;;;;;;;;;;;;;6243294;23;19907;-76
2022/08/17 03:40:03;;;;;;;;;;;;;;;;;;6243369;23;19907;-74
2022/08/17 03:42:29;;;;;;;;;;;;;;;;;;6243385;23;20471;-75
2022/08/17 03:44:54;;;;;;;;;;;;;;;;;;6242974;23;19961;-75
2022/08/17 03:56:41;;;;;;;;;;;;;;;;;;6243203;23;19907;-78
2022/08/17 03:58:31;;;;;;;;;;;;;;;;;;6216439;23;19915;-75
2022/08/17 04:00:57;;;;;;;;;;;;;;;;;;6243623;23;20395;-76
2022/08/17 04:03:22;;;;;;;;;;;;;;;;;;6226691;23;19912;-75
2022/08/17 04:05:48;;;;;;;;;;;;;;;;;;6258808;23;19907;-75
2022/08/17 04:08:14;;;;;;;;;;;;;;;;;;6257120;23;19939;-76
2022/08/17 04:10:39;;;;;;;;;;;;;;;;;;6245858;23;19961;-75
2022/08/17 04:13:05;;;;;;;;;;;;;;;;;;6192904;23;19908;-78
2022/08/17 04:15:32;;;;;;;;;;;;;;;;;;6244241;23;20339;-75
2022/08/17 04:17:57;;;;;;;;;;;;;;;;;;6216252;23;19939;-76
2022/08/17 04:20:23;;;;;;;;;;;;;;;;;;6242900;23;20339;-75
2022/08/17 04:22:49;;;;;;;;;;;;;;;;;;6243107;22;20243;-74
2022/08/17 04:25:15;;;;;;;;;;;;;;;;;;6242783;23;19907;-76
2022/08/17 04:27:40;;;;;;;;;;;;;;;;;;6191113;23;19921;-75
2022/08/17 04:30:06;;;;;;;;;;;;;;;;;;6215755;23;19915;-76
2022/08/17 04:32:32;;;;;;;;;;;;;;;;;;6216180;23;20338;-76
2022/08/17 04:34:57;;;;;;;;;;;;;;;;;;6242838;23;19907;-75
2022/08/17 04:37:23;;;;;;;;;;;;;;;;;;6242309;23;20110;-74
2022/08/17 04:42:05;;;;;;;;;;;;;;;;;;6243088;23;19948;-76
2022/08/17 04:42:34;;;;;;;;;;;;;;;;;;6242967;23;19908;-75
2022/08/17 04:45:00;;;;;;;;;;;;;;;;;;6191089;23;20407;-76
2022/08/17 04:47:25;;;;;;;;;;;;;;;;;;6242727;23;20355;-76
2022/08/17 04:49:52;;;;;;;;;;;;;;;;;;6190892;23;19990;-75
2022/08/17 04:52:18;;;;;;;;;;;;;;;;;;6215866;23;19907;-76
2022/08/17 04:54:43;;;;;;;;;;;;;;;;;;6215976;23;19907;-75
2022/08/17 04:57:09;;;;;;;;;;;;;;;;;;6215719;23;19907;-76
2022/08/17 04:59:34;;;;;;;;;;;;;;;;;;6190791;23;20293;-75
2022/08/17 05:02:00;;;;;;;;;;;;;;;;;;6242898;23;19922;-76
2022/08/17 05:04:26;;;;;;;;;;;;;;;;;;6242467;23;19931;-76
2022/08/17 05:06:53;;;;;;;;;;;;;;;;;;6215902;23;19943;-76
2022/08/17 05:09:18;;;;;;;;;;;;;;;;;;6242303;23;19907;-75
2022/08/17 05:11:44;;;;;;;;;;;;;;;;;;6242694;23;20245;-76
2022/08/17 05:14:10;;;;;;;;;;;;;;;;;;6215494;23;19915;-75
2022/08/17 05:16:35;;;;;;;;;;;;;;;;;;6241233;23;19903;-76
2022/08/17 05:19:01;;;;;;;;;;;;;;;;;;6242267;23;19922;-77
2022/08/17 05:21:27;;;;;;;;;;;;;;;;;;6242297;22;19913;-77
2022/08/17 05:23:53;;;;;;;;;;;;;;;;;;6241980;23;19965;-76
2022/08/17 05:26:18;;;;;;;;;;;;;;;;;;6242131;23;19907;-76
2022/08/17 05:28:44;;;;;;;;;;;;;;;;;;6241950;23;19941;-76
2022/08/17 05:31:09;;;;;;;;;;;;;;;;;;6242177;23;19914;-76
2022/08/17 05:33:35;;;;;;;;;;;;;;;;;;6242056;23;19907;-76
2022/08/17 05:36:01;;;;;;;;;;;;;;;;;;6241419;23;19908;-78
2022/08/17 05:38:26;;;;;;;;;;;;;;;;;;6241955;23;19942;-76
2022/08/17 05:40:52;;;;;;;;;;;;;;;;;;6242412;23;19911;-77
2022/08/17 05:43:17;;;;;;;;;;;;;;;;;;6241953;23;19914;-76
2022/08/17 05:45:43;;;;;;;;;;;;;;;;;;6240755;23;20362;-78
2022/08/17 05:48:09;;;;;;;;;;;;;;;;;;6242053;23;20347;-79
2022/08/17 05:50:34;;;;;;;;;;;;;;;;;;6242337;23;19914;-79
2022/08/17 05:53:00;;;;;;;;;;;;;;;;;;6241614;23;20318;-79
2022/08/17 05:55:26;;;;;;;;;;;;;;;;;;6241828;23;20296;-79
2022/08/17 05:57:52;;;;;;;;;;;;;;;;;;6241954;23;19908;-79
2022/08/17 06:00:17;;;;;;;;;;;;;;;;;;6241695;23;20359;-79
2022/08/17 06:02:43;;;;;;;;;;;;;;;;;;6240586;23;20085;-79
2022/08/17 06:05:09;;;;;;;;;;;;;;;;;;6243885;23;19907;-79
2022/08/17 06:07:34;;;;;;;;;;;;;;;;;;6242543;23;19907;-80
2022/08/17 06:10:00;;;;;;;;;;;;;;;;;;6217291;23;19916;-81
2022/08/17 06:12:25;;;;;;;;;;;;;;;;;;6243850;23;20323;-80
2022/08/17 06:14:52;;;;;;;;;;;;;;;;;;6243810;23;19907;-80
2022/08/17 06:17:17;;;;;;;;;;;;;;;;;;6243099;23;19953;-80
2022/08/17 06:19:43;;;;;;;;;;;;;;;;;;6243822;23;19920;-79
2022/08/17 06:22:09;;;;;;;;;;;;;;;;;;6243904;22;19969;-79
2022/08/17 06:24:35;;;;;;;;;;;;;;;;;;6243779;23;19907;-76
2022/08/17 06:27:00;;;;;;;;;;;;;;;;;;6244265;23;19961;-76
2022/08/17 06:29:26;;;;;;;;;;;;;;;;;;6241785;23;19907;-76
2022/08/17 06:31:52;;;;;;;;;;;;;;;;;;6243262;23;19990;-77
2022/08/17 06:34:20;;;;;;;;;;;;;;;;;;6241688;23;19946;-76
2022/08/17 06:36:47;;;;;;;;;;;;;;;;;;6243784;23;19986;-76
2022/08/17 06:39:12;;;;;;;;;;;;;;;;;;6243703;23;19923;-77
2022/08/17 06:41:38;;;;;;;;;;;;;;;;;;6243987;23;19907;-75
2022/08/17 06:44:05;;;;;;;;;;;;;;;;;;6217007;23;19911;-75
2022/08/17 06:46:31;;;;;;;;;;;;;;;;;;6216820;23;19915;-75
2022/08/17 06:48:56;;;;;;;;;;;;;;;;;;6243650;23;19918;-75
2022/08/17 06:51:22;;;;;;;;;;;;;;;;;;6216844;23;19911;-77
2022/08/17 06:53:47;;;;;;;;;;;;;;;;;;6216905;23;19907;-76
2022/08/17 06:56:13;;;;;;;;;;;;;;;;;;6217016;23;19914;-75
2022/08/17 06:58:39;;;;;;;;;;;;;;;;;;6243424;23;19915;-76
2022/08/17 07:01:04;;;;;;;;;;;;;;;;;;6245130;23;19998;-78
2022/08/17 07:03:30;;;;;;;;;;;;;;;;;;6245834;23;20335;-78
2022/08/17 07:05:56;;;;;;;;;;;;;;;;;;6255835;23;19908;-79
2022/08/17 07:08:22;;;;;;;;;;;;;;;;;;6256620;23;19947;-75
2022/08/17 07:10:47;;;;;;;;;;;;;;;;;;6218846;23;19907;-77
2022/08/17 07:13:13;;;;;;;;;;;;;;;;;;6243788;23;19918;-75
2022/08/17 07:15:39;;;;;;;;;;;;;;;;;;6243527;23;19908;-75
2022/08/17 07:18:04;;;;;;;;;;;;;;;;;;6243607;23;19915;-76
2022/08/17 07:20:30;;;;;;;;;;;;;;;;;;6242846;23;20336;-75
2022/08/17 07:22:56;;;;;;;;;;;;;;;;;;6242530;22;20343;-76
2022/08/17 07:25:21;;;;;;;;;;;;;;;;;;6216254;23;20366;-77
2022/08/17 07:27:49;;;;;;;;;;;;;;;;;;6242812;23;20461;-76
2022/08/17 07:30:15;;;;;;;;;;;;;;;;;;6216746;23;19908;-75
2022/08/17 07:32:42;;;;;;;;;;;;;;;;;;6216481;23;19907;-75
2022/08/17 07:35:09;;;;;;;;;;;;;;;;;;6243321;23;19907;-76
2022/08/17 07:37:37;;;;;;;;;;;;;;;;;;6242653;23;19954;-75
2022/08/17 07:40:04;;;;;;;;;;;;;;;;;;6242990;23;20360;-75
2022/08/17 07:42:32;;;;;;;;;;;;;;;;;;6242898;23;19907;-77
2022/08/17 07:48:17;;;;;;;;;;;;;;;;;;6243114;23;20255;-78
2022/08/17 07:50:27;;;;;;;;;;;;;;;;;;6242824;23;19908;-75
2022/08/17 07:52:52;;;;;;;;;;;;;;;;;;6243610;23;19916;-76
2022/08/17 07:55:18;;;;;;;;;;;;;;;;;;6243546;23;20352;-77
2022/08/17 07:57:44;;;;;;;;;;;;;;;;;;6215826;23;19908;-75
2022/08/17 08:00:15;;;;;;;;;;;;;;;;;;6243144;23;19923;-76
2022/08/17 08:02:41;;;;;;;;;;;;;;;;;;6242710;23;19907;-76
2022/08/17 08:05:08;;;;;;;;;;;;;;;;;;6216268;23;19919;-76
2022/08/17 08:07:33;;;;;;;;;;;;;;;;;;6215512;23;19908;-77
2022/08/17 08:09:59;;;;;;;;;;;;;;;;;;6242710;23;20369;-75
2022/08/17 08:12:25;;;;;;;;;;;;;;;;;;6242719;23;19907;-76
2022/08/17 08:14:53;;;;;;;;;;;;;;;;;;6242594;23;19922;-77
2022/08/17 08:17:18;;;;;;;;;;;;;;;;;;6240783;23;19915;-80
2022/08/17 08:19:44;;;;;;;;;;;;;;;;;;6242879;23;20247;-75
2022/08/17 08:22:10;;;;;;;;;;;;;;;;;;6242519;22;20292;-76
2022/08/17 08:24:36;;;;;;;;;;;;;;;;;;6242365;23;20395;-78
2022/08/17 08:27:01;;;;;;;;;;;;;;;;;;6242988;23;19907;-74
2022/08/17 08:29:28;;;;;;;;;;;;;;;;;;6240599;23;19907;-76
2022/08/17 08:31:55;;;;;;;;;;;;;;;;;;6242320;23;19919;-76
2022/08/17 08:34:22;;;;;;;;;;;;;;;;;;6242527;23;19907;-77
2022/08/17 08:36:49;;;;;;;;;;;;;;;;;;6242696;23;19908;-77
2022/08/17 08:39:14;;;;;;;;;;;;;;;;;;6242515;23;19922;-75
2022/08/17 08:41:40;;;;;;;;;;;;;;;;;;6215594;23;19908;-75
2022/08/17 08:44:06;;;;;;;;;;;;;;;;;;6242128;23;19907;-77
2022/08/17 08:46:34;;;;;;;;;;;;;;;;;;6242524;23;19994;-78
2022/08/17 08:49:00;;;;;;;;;;;;;;;;;;6242566;23;19912;-76
2022/08/17 08:51:26;;;;;;;;;;;;;;;;;;6242329;23;19908;-78
2022/08/17 08:53:52;;;;;;;;;;;;;;;;;;6242072;23;19957;-75
2022/08/17 08:56:18;;;;;;;;;;;;;;;;;;6242231;23;19907;-77
2022/08/17 08:58:43;;;;;;;;;;;;;;;;;;6215265;23;20430;-76
2022/08/17 09:01:09;;;;;;;;;;;;;;;;;;6240956;23;19930;-77
2022/08/17 09:03:35;;;;;;;;;;;;;;;;;;6215357;23;20298;-73
2022/08/17 09:06:02;;;;;;;;;;;;;;;;;;6242539;23;19907;-74
2022/08/17 09:08:27;;;;;;;;;;;;;;;;;;6241725;23;19903;-76
2022/08/17 09:10:55;;;;;;;;;;;;;;;;;;6242517;23;20197;-77
2022/08/17 09:13:21;;;;;;;;;;;;;;;;;;6242088;23;20259;-76
2022/08/17 09:15:46;;;;;;;;;;;;;;;;;;6215388;23;19907;-75
2022/08/17 09:18:12;;;;;;;;;;;;;;;;;;6242146;23;19919;-75
2022/08/17 09:20:42;;;;;;;;;;;;;;;;;;6241502;23;20316;-75
2022/08/17 09:23:08;;;;;;;;;;;;;;;;;;6242062;22;20312;-77
2022/08/17 09:25:34;;;;;;;;;;;;;;;;;;6241786;23;19938;-75
2022/08/17 09:27:59;;;;;;;;;;;;;;;;;;6242302;23;20336;-74
2022/08/17 09:30:25;;;;;;;;;;;;;;;;;;6241764;23;20279;-75
2022/08/17 09:32:53;;;;;;;;;;;;;;;;;;6242146;23;19908;-75
2022/08/17 09:35:21;;;;;;;;;;;;;;;;;;6215525;23;19907;-75
2022/08/17 09:37:47;;;;;;;;;;;;;;;;;;6241970;23;19911;-76
2022/08/17 09:40:12;;;;;;;;;;;;;;;;;;6242237;23;19961;-76
2022/08/17 09:42:38;;;;;;;;;;;;;;;;;;6243438;23;19907;-76
2022/08/17 09:45:03;;;;;;;;;;;;;;;;;;6245258;23;19907;-75
2022/08/17 09:47:29;;;;;;;;;;;;;;;;;;6217901;23;19918;-75
2022/08/17 09:49:55;;;;;;;;;;;;;;;;;;6217727;23;19911;-75
2022/08/17 09:52:20;;;;;;;;;;;;;;;;;;6244787;23;19908;-76
2022/08/17 09:54:46;;;;;;;;;;;;;;;;;;6244525;23;19990;-75
2022/08/17 09:57:12;;;;;;;;;;;;;;;;;;6217951;23;19907;-75
2022/08/17 09:59:37;;;;;;;;;;;;;;;;;;6245236;23;19915;-77
2022/08/17 10:02:03;;;;;;;;;;;;;;;;;;6218195;23;20267;-76
2022/08/17 10:04:31;;;;;;;;;;;;;;;;;;6249086;23;20358;-74
2022/08/17 10:06:57;;;;;;;;;;;;;;;;;;6256574;23;19908;-76
2022/08/17 10:09:23;;;;;;;;;;;;;;;;;;6250652;23;19998;-77
2022/08/17 10:14:33;;;;;;;;;;;;;;;;;;6243558;23;19965;-75
2022/08/17 10:16:59;;;;;;;;;;;;;;;;;;6242625;23;19908;-74
2022/08/17 10:19:24;;;;;;;;;;;;;;;;;;6243875;23;19922;-75
2022/08/17 10:27:32;;;;;;;;;;;;;;;;;;6243424;23;19915;-76
2022/08/17 10:29:58;;;;;;;;;;;;;;;;;;6243852;23;19911;-76
2022/08/17 10:32:24;;;;;;;;;;;;;;;;;;6244179;23;19908;-75
2022/08/17 10:34:50;;;;;;;;;;;;;;;;;;6243374;23;20259;-75
2022/08/17 10:37:15;;;;;;;;;;;;;;;;;;6243775;23;20259;-76
2022/08/17 10:39:41;;;;;;;;;;;;;;;;;;6243367;23;19998;-76
2022/08/17 10:42:07;;;;;;;;;;;;;;;;;;6243832;23;19914;-74
2022/08/17 10:44:34;;;;;;;;;;;;;;;;;;6243476;23;19919;-73
2022/08/17 10:47:00;;;;;;;;;;;;;;;;;;6243743;23;19908;-75
2022/08/17 10:49:25;;;;;;;;;;;;;;;;;;6216977;23;19934;-76
2022/08/17 10:51:53;;;;;;;;;;;;;;;;;;6231480;22;20150;-71
2022/08/17 10:54:19;;;;;;;;;;;;;;;;;;6234904;23;19915;-71
2022/08/17 10:56:45;;;;;;;;;;;;;;;;;;6242354;23;19969;-72
2022/08/17 10:59:11;;;;;;;;;;;;;;;;;;6273278;22;19915;-71
2022/08/17 11:01:36;;;;;;;;;;;;;;;;;;6274139;22;19907;-71
2022/08/17 11:04:02;;;;;;;;;;;;;;;;;;6273706;22;19986;-71
2022/08/17 11:06:28;;;;;;;;;;;;;;;;;;6246732;22;19996;-71
2022/08/17 11:08:56;;;;;;;;;;;;;;;;;;6274004;22;19953;-71
2022/08/17 11:11:22;;;;;;;;;;;;;;;;;;6273687;22;19994;-70
2022/08/17 11:13:47;;;;;;;;;;;;;;;;;;6273698;22;19938;-71
2022/08/17 11:16:13;;;;;;;;;;;;;;;;;;6274145;22;20089;-73
2022/08/17 11:18:39;;;;;;;;;;;;;;;;;;6246875;22;19946;-70
2022/08/17 11:21:04;;;;;;;;;;;;;;;;;;6274040;22;19957;-71
2022/08/17 11:23:30;;;;;;;;;;;;;;;;;;6245687;22;20361;-70
2022/08/17 11:25:55;;;;;;;;;;;;;;;;;;6273783;22;19918;-71
2022/08/17 11:28:21;;;;;;;;;;;;;;;;;;6273895;22;19923;-70
2022/08/17 11:30:47;;;;;;;;;;;;;;;;;;6274175;22;20410;-71
2022/08/17 11:33:13;;;;;;;;;;;;;;;;;;6273257;22;19914;-70
2022/08/17 11:35:39;;;;;;;;;;;;;;;;;;6273676;22;19945;-70
2022/08/17 11:38:04;;;;;;;;;;;;;;;;;;6273802;22;19931;-70
2022/08/17 11:40:30;;;;;;;;;;;;;;;;;;6273904;22;19977;-70
2022/08/17 11:42:56;;;;;;;;;;;;;;;;;;6274005;22;19933;-70
2022/08/17 11:45:21;;;;;;;;;;;;;;;;;;6273847;22;20362;-69
2022/08/17 11:53:16;;;;;;;;;;;;;;;;;;6250465;22;19973;-72
2022/08/17 11:55:43;;;;;;;;;;;;;;;;;;6243259;23;19907;-71
2022/08/17 11:58:08;;;;;;;;;;;;;;;;;;6242930;23;19938;-71
2022/08/17 12:00:34;;;;;;;;;;;;;;;;;;6242996;23;19907;-71
2022/08/17 12:03:00;;;;;;;;;;;;;;;;;;6216277;23;20354;-69
2022/08/17 12:05:26;;;;;;;;;;;;;;;;;;6242294;23;19956;-71
2022/08/17 12:07:52;;;;;;;;;;;;;;;;;;6242858;23;19907;-70
2022/08/17 12:10:17;;;;;;;;;;;;;;;;;;6242990;23;19977;-72
2022/08/17 12:12:43;;;;;;;;;;;;;;;;;;6242628;23;19907;-71
2022/08/17 12:15:09;;;;;;;;;;;;;;;;;;6242569;23;19961;-71
2022/08/17 12:17:37;;;;;;;;;;;;;;;;;;6215719;23;19907;-70
2022/08/17 12:20:03;;;;;;;;;;;;;;;;;;6242826;23;19915;-71
2022/08/17 12:22:32;;;;;;;;;;;;;;;;;;6241263;23;19918;-70
2022/08/17 12:24:58;;;;;;;;;;;;;;;;;;6243189;23;20294;-69
2022/08/17 12:27:24;;;;;;;;;;;;;;;;;;6243039;23;20344;-69
2022/08/17 12:29:50;;;;;;;;;;;;;;;;;;6241349;23;19921;-70
2022/08/17 12:32:17;;;;;;;;;;;;;;;;;;6242934;23;19927;-71
2022/08/17 12:34:42;;;;;;;;;;;;;;;;;;6242943;23;20303;-71
2022/08/17 12:37:08;;;;;;;;;;;;;;;;;;6241845;23;19907;-70
2022/08/17 12:39:34;;;;;;;;;;;;;;;;;;6242807;23;20184;-70
2022/08/17 12:41:59;;;;;;;;;;;;;;;;;;6216054;23;20331;-71
2022/08/17 12:44:25;;;;;;;;;;;;;;;;;;6242695;23;20297;-70
2022/08/17 12:46:51;;;;;;;;;;;;;;;;;;6243246;23;19914;-70
2022/08/17 12:49:17;;;;;;;;;;;;;;;;;;6242749;23;19907;-70
2022/08/17 12:51:43;;;;;;;;;;;;;;;;;;6242840;22;19922;-72
2022/08/17 12:54:10;;;;;;;;;;;;;;;;;;6242506;23;19916;-71
2022/08/17 12:56:36;;;;;;;;;;;;;;;;;;6242490;23;19918;-69
2022/08/17 12:59:01;;;;;;;;;;;;;;;;;;6242651;23;19915;-71
2022/08/17 13:01:27;;;;;;;;;;;;;;;;;;6244300;23;19961;-72
2022/08/17 13:03:52;;;;;;;;;;;;;;;;;;6243492;23;20362;-69
2022/08/17 13:06:18;;;;;;;;;;;;;;;;;;6242792;23;19914;-69
2022/08/17 13:08:43;;;;;;;;;;;;;;;;;;6241035;23;20065;-70
2022/08/17 13:11:09;;;;;;;;;;;;;;;;;;6242547;23;19927;-70
2022/08/17 13:13:35;;;;;;;;;;;;;;;;;;6242372;23;19907;-69
2022/08/17 13:16:00;;;;;;;;;;;;;;;;;;6242369;23;19908;-69
2022/08/17 13:18:26;;;;;;;;;;;;;;;;;;6242257;23;19995;-69
2022/08/17 13:20:52;;;;;;;;;;;;;;;;;;6242910;23;19914;-70
2022/08/17 13:23:18;;;;;;;;;;;;;;;;;;6242277;23;19914;-68
2022/08/17 13:25:45;;;;;;;;;;;;;;;;;;6242297;23;19908;-71
2022/08/17 13:28:11;;;;;;;;;;;;;;;;;;6241393;23;19994;-69
2022/08/17 13:30:37;;;;;;;;;;;;;;;;;;6241791;23;19938;-67
2022/08/17 13:33:02;;;;;;;;;;;;;;;;;;6241975;23;20340;-68
2022/08/17 13:35:28;;;;;;;;;;;;;;;;;;6241782;23;19982;-70
2022/08/17 13:37:54;;;;;;;;;;;;;;;;;;6241796;23;19968;-70
2022/08/17 13:40:19;;;;;;;;;;;;;;;;;;6241623;23;20404;-70
2022/08/17 13:42:45;;;;;;;;;;;;;;;;;;6189231;23;19918;-69
2022/08/17 13:45:12;;;;;;;;;;;;;;;;;;6242293;23;20224;-69
2022/08/17 13:47:40;;;;;;;;;;;;;;;;;;6241988;23;19907;-69
2022/08/17 13:50:05;;;;;;;;;;;;;;;;;;6242424;23;19912;-69
2022/08/17 13:52:31;;;;;;;;;;;;;;;;;;6241973;22;19918;-69
2022/08/17 13:54:56;;;;;;;;;;;;;;;;;;6214908;23;20327;-70
2022/08/17 13:57:22;;;;;;;;;;;;;;;;;;6242146;23;19907;-70
2022/08/17 13:59:48;;;;;;;;;;;;;;;;;;6241577;23;19915;-70
2022/08/17 14:02:13;;;;;;;;;;;;;;;;;;6241922;23;20228;-70
2022/08/17 14:04:39;;;;;;;;;;;;;;;;;;6241490;23;19908;-70
2022/08/17 14:07:04;;;;;;;;;;;;;;;;;;6242606;23;19939;-70
2022/08/17 14:09:30;;;;;;;;;;;;;;;;;;6241488;23;20422;-71
2022/08/17 14:11:56;;;;;;;;;;;;;;;;;;6242352;23;19919;-70
2022/08/17 14:14:21;;;;;;;;;;;;;;;;;;6241928;23;19942;-71
2022/08/17 14:16:47;;;;;;;;;;;;;;;;;;6241833;23;19911;-68
2022/08/17 14:19:12;;;;;;;;;;;;;;;;;;6241916;23;20397;-71
2022/08/17 14:21:38;;;;;;;;;;;;;;;;;;6215231;23;19994;-71
2022/08/17 14:24:04;;;;;;;;;;;;;;;;;;6241372;23;19908;-70
2022/08/17 14:26:29;;;;;;;;;;;;;;;;;;6240002;23;19907;-69
2022/08/17 14:28:55;;;;;;;;;;;;;;;;;;6241898;23;19964;-70
2022/08/17 14:31:20;;;;;;;;;;;;;;;;;;6242665;23;19907;-69
2022/08/17 14:33:46;;;;;;;;;;;;;;;;;;6243250;23;19908;-69
2022/08/17 14:36:12;;;;;;;;;;;;;;;;;;6243735;23;19907;-71
2022/08/17 14:38:37;;;;;;;;;;;;;;;;;;6241718;23;19915;-71
2022/08/17 14:41:03;;;;;;;;;;;;;;;;;;6243305;23;19913;-70
2022/08/17 14:43:29;;;;;;;;;;;;;;;;;;6243523;23;20339;-70
2022/08/17 14:45:54;;;;;;;;;;;;;;;;;;6243273;23;19938;-73
2022/08/17 14:48:20;;;;;;;;;;;;;;;;;;6243369;23;20240;-69
2022/08/17 14:50:46;;;;;;;;;;;;;;;;;;6242764;23;20248;-71
2022/08/17 14:53:12;;;;;;;;;;;;;;;;;;6243748;22;19916;-72
2022/08/17 14:55:39;;;;;;;;;;;;;;;;;;6241598;23;20032;-70
2022/08/17 14:58:04;;;;;;;;;;;;;;;;;;6243392;23;19914;-68
2022/08/17 15:00:30;;;;;;;;;;;;;;;;;;6242891;23;19990;-70
2022/08/17 15:02:56;;;;;;;;;;;;;;;;;;6243151;23;19911;-70
2022/08/17 15:05:23;;;;;;;;;;;;;;;;;;6243344;23;19914;-69
2022/08/17 15:07:49;;;;;;;;;;;;;;;;;;6243097;23;19908;-70
2022/08/17 15:10:14;;;;;;;;;;;;;;;;;;6242126;23;19907;-70
2022/08/17 15:12:40;;;;;;;;;;;;;;;;;;6242534;23;19907;-70
2022/08/17 15:15:05;;;;;;;;;;;;;;;;;;6243390;23;20339;-70
2022/08/17 15:17:31;;;;;;;;;;;;;;;;;;6243030;23;19998;-70
2022/08/17 15:19:57;;;;;;;;;;;;;;;;;;6241538;23;20316;-69
2022/08/17 15:22:22;;;;;;;;;;;;;;;;;;6242240;23;19914;-70
2022/08/17 15:24:48;;;;;;;;;;;;;;;;;;6242137;23;19922;-70
2022/08/17 15:27:13;;;;;;;;;;;;;;;;;;6242372;23;19907;-69
2022/08/17 15:29:39;;;;;;;;;;;;;;;;;;6241660;23;19927;-71
2022/08/17 15:32:05;;;;;;;;;;;;;;;;;;6242195;23;19911;-70
2022/08/17 15:34:30;;;;;;;;;;;;;;;;;;6239723;23;20317;-69
2022/08/17 15:36:56;;;;;;;;;;;;;;;;;;6241444;23;19922;-70
2022/08/17 15:39:21;;;;;;;;;;;;;;;;;;6241760;23;20307;-71
2022/08/17 15:41:47;;;;;;;;;;;;;;;;;;6241506;23;20379;-70
2022/08/17 15:44:13;;;;;;;;;;;;;;;;;;6241738;23;19907;-70
2022/08/17 15:46:38;;;;;;;;;;;;;;;;;;6241957;23;19907;-70
2022/08/17 15:49:04;;;;;;;;;;;;;;;;;;6242295;23;19908;-71
2022/08/17 15:51:30;;;;;;;;;;;;;;;;;;6241434;22;20233;-71
2022/08/17 15:53:55;;;;;;;;;;;;;;;;;;6241284;23;19919;-71
2022/08/17 15:56:21;;;;;;;;;;;;;;;;;;6242316;23;19915;-69
2022/08/17 15:58:47;;;;;;;;;;;;;;;;;;6214502;23;19962;-69
2022/08/17 16:01:12;;;;;;;;;;;;;;;;;;6242994;23;19992;-70
2022/08/17 16:03:38;;;;;;;;;;;;;;;;;;6242065;23;19990;-70
2022/08/17 16:06:04;;;;;;;;;;;;;;;;;;6242403;23;19962;-70
2022/08/17 16:08:29;;;;;;;;;;;;;;;;;;6242692;23;19907;-72
2022/08/17 16:10:57;;;;;;;;;;;;;;;;;;6242618;23;19907;-71
2022/08/17 16:13:22;;;;;;;;;;;;;;;;;;6242698;23;19982;-70
2022/08/17 16:15:49;;;;;;;;;;;;;;;;;;6242423;23;20010;-69
2022/08/17 16:18:15;;;;;;;;;;;;;;;;;;6242727;23;20364;-71
2022/08/17 16:20:40;;;;;;;;;;;;;;;;;;6242345;23;19931;-70
2022/08/17 16:23:06;;;;;;;;;;;;;;;;;;6242453;23;19965;-71
2022/08/17 16:25:32;;;;;;;;;;;;;;;;;;6242382;23;19918;-71
2022/08/17 16:27:57;;;;;;;;;;;;;;;;;;6242484;23;19978;-71
2022/08/17 16:30:23;;;;;;;;;;;;;;;;;;6242503;23;19961;-70
2022/08/17 16:32:50;;;;;;;;;;;;;;;;;;6242042;23;19946;-71
2022/08/17 16:35:15;;;;;;;;;;;;;;;;;;6242499;23;19915;-70
2022/08/17 16:37:41;;;;;;;;;;;;;;;;;;6242151;23;20255;-70
2022/08/17 16:40:07;;;;;;;;;;;;;;;;;;6242107;23;19915;-70
2022/08/17 16:42:32;;;;;;;;;;;;;;;;;;6242513;23;19908;-71
2022/08/17 16:44:58;;;;;;;;;;;;;;;;;;6242609;23;19907;-70
2022/08/17 16:47:24;;;;;;;;;;;;;;;;;;6242764;23;19914;-69
2022/08/17 16:49:50;;;;;;;;;;;;;;;;;;6242281;23;19907;-70
2022/08/17 16:52:15;;;;;;;;;;;;;;;;;;6242119;22;19915;-70
2022/08/17 16:54:42;;;;;;;;;;;;;;;;;;6242288;23;19915;-70
2022/08/17 16:57:07;;;;;;;;;;;;;;;;;;6242730;23;20362;-71
2022/08/17 16:59:33;;;;;;;;;;;;;;;;;;6242128;23;19943;-72
2022/08/17 17:02:03;;;;;;;;;;;;;;;;;;6242660;23;19908;-70